Time;durP1;ratioP1;P1;durP2;ratioP2;P2;SDS_P1;SDS_P2;PMS_P1;PMS_P2;Temp;Humidity;BMP_temperature;BMP_pressure;BME280_temperature;BME280_humidity;BME280_pressure;Samples;Min_cycle;Max_cycle;Signal;HPM_P1;HPM_P2
2021/04/23 00:01:13;;;;;;;8.77;4.23;;;7.30;97.90;;;;;;4997056;28;20171;-73
2021/04/23 00:03:46;;;;;;;12.43;5.13;;;7.30;98.00;;;;;;4996187;28;20441;-73
2021/04/23 00:06:25;;;;;;;7.20;4.73;;;7.20;98.40;;;;;;4996959;28;20962;-73
2021/04/23 00:09:04;;;;;;;7.93;4.87;;;7.20;98.60;;;;;;4997224;28;20521;-73
2021/04/23 00:11:35;;;;;;;7.67;4.50;;;7.20;98.60;;;;;;4997655;28;20579;-73
2021/04/23 00:14:01;;;;;;;9.17;4.50;;;7.30;98.60;;;;;;4997612;28;20423;-73
2021/04/23 00:16:27;;;;;;;7.60;4.43;;;7.30;98.70;;;;;;4998340;28;20475;-73
2021/04/23 00:18:53;;;;;;;9.40;4.57;;;7.40;98.70;;;;;;4997129;28;20486;-73
2021/04/23 00:21:21;;;;;;;6.73;4.80;;;7.30;98.60;;;;;;4997728;28;20184;-73
2021/04/23 00:23:47;;;;;;;7.07;4.87;;;7.30;98.60;;;;;;4997508;28;20246;-73
2021/04/23 00:26:13;;;;;;;7.10;4.97;;;7.30;98.50;;;;;;4997709;28;20411;-73
2021/04/23 00:28:39;;;;;;;12.93;5.57;;;7.30;98.70;;;;;;4997236;28;20510;-73
2021/04/23 00:31:06;;;;;;;5.30;4.73;;;7.20;98.80;;;;;;4997486;28;20747;-73
2021/04/23 00:33:32;;;;;;;9.50;5.60;;;7.10;98.90;;;;;;4997176;28;20184;-73
2021/04/23 00:35:58;;;;;;;11.80;5.80;;;7.00;99.50;;;;;;4996180;28;20446;-73
2021/04/23 00:38:26;;;;;;;10.60;5.33;;;6.90;99.60;;;;;;4996459;28;20542;-74
2021/04/23 00:40:59;;;;;;;8.17;5.17;;;6.80;99.90;;;;;;4996571;28;20494;-73
2021/04/23 00:43:28;;;;;;;8.90;5.07;;;6.80;99.90;;;;;;4995799;28;20503;-73
2021/04/23 00:45:54;;;;;;;7.13;5.13;;;6.60;99.90;;;;;;4996050;28;20814;-73
2021/04/23 00:48:21;;;;;;;8.53;4.90;;;6.60;99.90;;;;;;4996209;28;20427;-73
2021/04/23 00:50:55;;;;;;;8.80;4.67;;;6.70;99.90;;;;;;4996344;28;20494;-73
2021/04/23 00:53:26;;;;;;;6.67;5.20;;;6.60;99.90;;;;;;4996443;28;20390;-73
2021/04/23 00:55:54;;;;;;;9.50;5.17;;;6.60;99.90;;;;;;4996332;28;20432;-74
2021/04/23 00:58:24;;;;;;;9.57;4.70;;;6.50;99.90;;;;;;4996059;28;20455;-73
2021/04/23 01:00:56;;;;;;;5.33;4.60;;;6.40;99.90;;;;;;4996463;28;20822;-73
2021/04/23 01:03:23;;;;;;;10.10;5.40;;;6.30;99.90;;;;;;4996206;28;20450;-73
2021/04/23 01:05:50;;;;;;;13.63;4.97;;;6.30;99.90;;;;;;4996015;28;20411;-73
2021/04/23 01:08:16;;;;;;;11.23;5.03;;;6.20;99.90;;;;;;4995712;28;20457;-72
2021/04/23 01:10:42;;;;;;;7.47;4.70;;;6.30;99.90;;;;;;4996466;28;20415;-73
2021/04/23 01:13:08;;;;;;;11.13;5.27;;;6.20;99.90;;;;;;4995960;28;20423;-73
2021/04/23 01:15:34;;;;;;;11.97;5.33;;;6.30;99.90;;;;;;4996050;28;20415;-73
2021/04/23 01:17:59;;;;;;;7.07;5.10;;;6.30;99.90;;;;;;4995553;28;20462;-73
2021/04/23 01:20:26;;;;;;;6.10;4.67;;;6.30;99.90;;;;;;4995992;28;20566;-73
2021/04/23 01:22:52;;;;;;;14.47;6.50;;;6.40;99.90;;;;;;4994539;28;20169;-74
2021/04/23 01:25:19;;;;;;;9.87;5.40;;;6.50;99.90;;;;;;4996085;28;20422;-73
2021/04/23 01:27:44;;;;;;;6.87;5.17;;;6.50;99.90;;;;;;4995111;28;20432;-73
2021/04/23 01:30:15;;;;;;;13.20;5.40;;;6.50;99.90;;;;;;4995322;28;20454;-72
2021/04/23 01:32:40;;;;;;;9.07;5.47;;;6.60;99.90;;;;;;4994782;28;20680;-73
2021/04/23 01:35:10;;;;;;;8.57;5.03;;;6.50;99.90;;;;;;4994640;28;20427;-73
2021/04/23 01:37:35;;;;;;;8.23;6.10;;;6.40;99.90;;;;;;4994845;28;20199;-73
2021/04/23 01:40:02;;;;;;;8.10;5.57;;;6.30;99.90;;;;;;4994729;28;20427;-72
2021/04/23 01:42:27;;;;;;;8.73;5.10;;;6.30;99.90;;;;;;4994910;28;20523;-72
2021/04/23 01:44:57;;;;;;;7.03;5.70;;;6.20;99.90;;;;;;4994208;28;20486;-72
2021/04/23 01:47:24;;;;;;;11.33;5.00;;;6.20;99.90;;;;;;4994403;28;20192;-73
2021/04/23 01:49:50;;;;;;;9.43;6.00;;;6.10;99.90;;;;;;4994738;28;20438;-73
2021/04/23 01:52:17;;;;;;;12.40;5.30;;;6.00;99.90;;;;;;4994622;28;20415;-73
2021/04/23 01:54:43;;;;;;;9.80;5.73;;;5.90;99.90;;;;;;4993977;28;20180;-73
2021/04/23 01:57:08;;;;;;;9.77;6.07;;;5.80;99.90;;;;;;4993958;28;20839;-73
2021/04/23 01:59:36;;;;;;;11.73;6.97;;;5.80;99.90;;;;;;4994233;28;20200;-73
2021/04/23 02:02:02;;;;;;;9.10;5.20;;;5.70;99.90;;;;;;4993307;28;20648;-73
2021/04/23 02:04:28;;;;;;;9.93;5.53;;;5.70;99.90;;;;;;4997112;28;20454;-73
2021/04/23 02:06:54;;;;;;;10.40;5.90;;;5.80;99.90;;;;;;4996422;28;20430;-72
2021/04/23 02:09:20;;;;;;;13.63;6.00;;;5.80;99.90;;;;;;4995472;28;20489;-72
2021/04/23 02:11:48;;;;;;;13.27;6.17;;;5.80;99.90;;;;;;4995870;28;20427;-72
2021/04/23 02:14:14;;;;;;;9.20;5.50;;;5.70;99.90;;;;;;4997565;28;20411;-72
2021/04/23 02:16:41;;;;;;;7.60;5.27;;;5.70;99.90;;;;;;4997057;28;20558;-73
2021/04/23 02:19:09;;;;;;;7.60;5.73;;;5.80;99.90;;;;;;4997132;28;20426;-73
2021/04/23 02:21:36;;;;;;;8.73;5.73;;;5.90;99.90;;;;;;4997476;28;20411;-72
2021/04/23 02:24:03;;;;;;;8.47;5.37;;;5.90;99.90;;;;;;4997108;28;20494;-73
2021/04/23 02:26:28;;;;;;;12.33;5.30;;;5.80;99.90;;;;;;5005071;28;20427;-72
2021/04/23 02:28:54;;;;;;;12.67;6.20;;;5.80;99.90;;;;;;5012358;28;20478;-73
2021/04/23 02:31:57;;;;;;;10.27;5.57;;;5.70;99.90;;;;;;5109789;28;20550;-72
2021/04/23 02:34:25;;;;;;;9.50;5.50;;;5.70;99.90;;;;;;5096687;28;20449;-72
2021/04/23 02:36:51;;;;;;;9.60;5.70;;;5.70;99.90;;;;;;5099390;28;20211;-72
2021/04/23 02:39:19;;;;;;;12.27;6.10;;;5.70;99.90;;;;;;5103931;28;20465;-73
2021/04/23 02:41:47;;;;;;;10.20;6.03;;;5.80;99.90;;;;;;5092850;28;20414;-72
2021/04/23 02:44:13;;;;;;;13.50;6.47;;;5.90;99.90;;;;;;5094423;27;20438;-73
2021/04/23 02:46:40;;;;;;;13.20;6.10;;;5.80;99.90;;;;;;5091279;28;20422;-72
2021/04/23 02:49:07;;;;;;;10.20;6.40;;;5.70;99.90;;;;;;5076911;28;20465;-71
2021/04/23 02:51:38;;;;;;;14.20;6.10;;;5.50;99.90;;;;;;5071404;28;20514;-72
2021/04/23 02:54:04;;;;;;;13.80;6.03;;;5.50;99.90;;;;;;5071362;28;20907;-72
2021/04/23 02:56:31;;;;;;;9.33;5.63;;;5.40;99.90;;;;;;5073295;28;20428;-72
2021/04/23 02:58:57;;;;;;;9.97;6.17;;;5.40;99.90;;;;;;5072720;28;20941;-72
2021/04/23 03:01:27;;;;;;;12.10;6.30;;;5.40;99.90;;;;;;5071539;28;20475;-72
2021/04/23 03:03:53;;;;;;;11.17;5.77;;;5.40;99.90;;;;;;5071314;28;20451;-72
2021/04/23 03:06:19;;;;;;;10.03;6.83;;;5.40;99.90;;;;;;5071199;27;20434;-73
2021/04/23 03:08:44;;;;;;;9.33;5.70;;;5.50;99.90;;;;;;5071676;28;20972;-73
2021/04/23 03:11:16;;;;;;;7.30;5.70;;;5.60;99.90;;;;;;5071589;28;20224;-73
2021/04/23 03:13:48;;;;;;;13.30;6.50;;;5.50;99.90;;;;;;5072306;28;20218;-73
2021/04/23 03:16:13;;;;;;;11.47;6.60;;;5.40;99.90;;;;;;5071369;28;20421;-73
2021/04/23 03:18:41;;;;;;;11.20;6.67;;;5.30;99.90;;;;;;5071243;28;20447;-73
2021/04/23 03:21:08;;;;;;;12.13;6.70;;;5.30;99.90;;;;;;5071319;28;20896;-73
2021/04/23 03:23:34;;;;;;;9.67;6.20;;;5.20;99.90;;;;;;5071478;28;20493;-72
2021/04/23 03:26:03;;;;;;;9.90;6.80;;;5.20;99.90;;;;;;5070758;28;20415;-73
2021/04/23 03:28:29;;;;;;;11.60;6.57;;;5.20;99.90;;;;;;5070716;28;20428;-72
2021/04/23 03:30:55;;;;;;;24.40;7.00;;;5.10;99.90;;;;;;5069602;28;20467;-73
2021/04/23 03:33:22;;;;;;;12.63;7.80;;;5.20;99.90;;;;;;5070092;28;20525;-73
2021/04/23 03:35:51;;;;;;;10.70;6.50;;;5.20;99.90;;;;;;5069577;27;20470;-73
2021/04/23 03:38:17;;;;;;;10.60;6.50;;;5.40;99.90;;;;;;5068336;28;20449;-73
2021/04/23 03:40:43;;;;;;;8.97;6.00;;;5.40;99.90;;;;;;5069749;28;20443;-72
2021/04/23 03:43:10;;;;;;;11.63;6.37;;;5.50;99.90;;;;;;5057739;28;20772;-72
2021/04/23 03:45:36;;;;;;;14.50;7.00;;;5.60;99.90;;;;;;5055617;28;20469;-73
2021/04/23 03:48:04;;;;;;;7.60;6.03;;;5.50;99.90;;;;;;5056060;28;20421;-72
2021/04/23 03:50:31;;;;;;;11.50;6.77;;;5.40;99.90;;;;;;5057263;28;20460;-72
2021/04/23 03:52:59;;;;;;;9.20;5.90;;;5.30;99.90;;;;;;5056059;28;20891;-72
2021/04/23 03:55:30;;;;;;;10.83;6.87;;;5.20;99.90;;;;;;5056097;28;20493;-72
2021/04/23 03:57:57;;;;;;;11.80;6.43;;;5.20;99.90;;;;;;5056043;28;20411;-72
2021/04/23 04:00:27;;;;;;;13.43;7.40;;;5.20;99.90;;;;;;5061792;28;20465;-73
2021/04/23 04:02:53;;;;;;;11.67;6.90;;;5.30;99.90;;;;;;5075800;28;20414;-72
2021/04/23 04:05:20;;;;;;;11.23;7.73;;;5.30;99.90;;;;;;5063483;28;20443;-72
2021/04/23 04:07:46;;;;;;;13.90;7.30;;;5.40;99.90;;;;;;5046535;28;20460;-72
2021/04/23 04:10:13;;;;;;;13.10;7.57;;;5.50;99.90;;;;;;5054796;28;20566;-72
2021/04/23 04:12:38;;;;;;;10.47;7.17;;;5.50;99.90;;;;;;5051631;28;20191;-72
2021/04/23 04:15:06;;;;;;;15.40;7.00;;;5.50;99.90;;;;;;5052022;28;20436;-73
2021/04/23 04:17:32;;;;;;;12.07;7.00;;;5.50;99.90;;;;;;5049627;28;20185;-73
2021/04/23 04:19:57;;;;;;;22.43;7.20;;;5.60;99.90;;;;;;5045173;28;20521;-73
2021/04/23 04:22:23;;;;;;;16.60;6.63;;;5.50;99.90;;;;;;5049864;28;20641;-72
2021/04/23 04:24:48;;;;;;;12.57;7.13;;;5.30;99.90;;;;;;5044972;28;20189;-72
2021/04/23 04:27:16;;;;;;;9.97;6.40;;;5.10;99.90;;;;;;5054840;28;20209;-72
2021/04/23 04:29:42;;;;;;;14.00;6.87;;;5.00;99.90;;;;;;5045635;28;20583;-73
2021/04/23 04:32:07;;;;;;;11.53;5.90;;;4.80;99.90;;;;;;5042791;28;20408;-72
2021/04/23 04:34:33;;;;;;;11.03;7.33;;;4.60;99.90;;;;;;5055490;28;20174;-72
2021/04/23 04:36:58;;;;;;;11.50;6.47;;;4.70;99.90;;;;;;5055146;28;20528;-71
2021/04/23 04:39:24;;;;;;;12.03;6.87;;;4.70;99.90;;;;;;5055115;28;20191;-72
2021/04/23 04:41:49;;;;;;;12.93;7.00;;;4.90;99.90;;;;;;5055529;28;20178;-72
2021/04/23 04:44:15;;;;;;;14.37;8.17;;;5.00;99.90;;;;;;5056243;28;20204;-72
2021/04/23 04:46:40;;;;;;;12.60;6.97;;;5.10;99.90;;;;;;5056184;28;20723;-75
2021/04/23 04:49:06;;;;;;;14.07;7.57;;;5.20;99.90;;;;;;5053335;28;20597;-71
2021/04/23 04:51:32;;;;;;;13.87;6.60;;;5.10;99.90;;;;;;5047096;28;20205;-71
2021/04/23 04:53:57;;;;;;;12.93;7.37;;;5.10;99.90;;;;;;5054028;28;20176;-71
2021/04/23 04:56:23;;;;;;;16.77;8.10;;;5.20;99.90;;;;;;5053041;28;20249;-71
2021/04/23 04:58:49;;;;;;;11.93;7.47;;;5.20;99.90;;;;;;5054101;28;20206;-71
2021/04/23 05:01:15;;;;;;;11.03;7.20;;;5.20;99.90;;;;;;5053639;28;20172;-71
2021/04/23 05:03:41;;;;;;;15.57;8.00;;;5.30;99.90;;;;;;5055839;28;20178;-71
2021/04/23 05:06:09;;;;;;;21.90;8.03;;;5.30;99.90;;;;;;5054839;28;20402;-71
2021/04/23 05:08:36;;;;;;;12.00;6.67;;;5.40;99.90;;;;;;5054704;28;20960;-71
2021/04/23 05:11:01;;;;;;;9.70;6.73;;;5.40;99.90;;;;;;5054601;28;20450;-70
2021/04/23 05:13:27;;;;;;;11.03;7.40;;;5.50;99.90;;;;;;5054847;28;20422;-70
2021/04/23 05:15:53;;;;;;;16.07;8.40;;;5.50;99.90;;;;;;5055665;28;20427;-71
2021/04/23 05:18:18;;;;;;;14.40;7.83;;;5.50;99.90;;;;;;5054573;28;20248;-71
2021/04/23 05:20:44;;;;;;;12.30;8.50;;;5.60;99.90;;;;;;5055708;28;20179;-71
2021/04/23 05:23:09;;;;;;;15.47;8.30;;;5.70;99.90;;;;;;5055440;28;20174;-71
2021/04/23 05:25:35;;;;;;;12.57;7.50;;;5.80;99.90;;;;;;5055354;28;20219;-72
2021/04/23 05:28:02;;;;;;;14.00;7.90;;;5.80;99.90;;;;;;5054407;28;20217;-71
2021/04/23 05:30:31;;;;;;;13.57;7.43;;;5.90;99.90;;;;;;5054448;28;20467;-72
2021/04/23 05:32:58;;;;;;;14.70;8.10;;;6.00;99.90;;;;;;5056421;28;20770;-71
2021/04/23 05:35:23;;;;;;;14.60;7.00;;;6.10;99.90;;;;;;5056539;28;20425;-71
2021/04/23 05:37:50;;;;;;;16.63;8.07;;;6.10;99.90;;;;;;5053700;28;20440;-71
2021/04/23 05:40:24;;;;;;;11.13;7.57;;;6.20;99.90;;;;;;5054985;28;20230;-70
2021/04/23 05:42:50;;;;;;;11.43;7.13;;;6.20;99.90;;;;;;5056229;28;20462;-72
2021/04/23 05:45:16;;;;;;;14.87;8.00;;;6.30;99.90;;;;;;5055857;28;20421;-72
2021/04/23 05:47:42;;;;;;;11.70;8.57;;;6.30;99.90;;;;;;5053586;28;20912;-71
2021/04/23 05:50:11;;;;;;;14.90;8.57;;;6.40;99.90;;;;;;5063435;28;20452;-71
2021/04/23 05:52:37;;;;;;;16.60;8.67;;;6.30;99.90;;;;;;5075951;28;20408;-71
2021/04/23 05:55:04;;;;;;;11.13;8.40;;;6.30;99.90;;;;;;5075236;28;20480;-71
2021/04/23 05:57:30;;;;;;;18.97;9.47;;;6.40;99.90;;;;;;5054993;28;20423;-71
2021/04/23 05:59:56;;;;;;;15.27;9.03;;;6.40;99.90;;;;;;5053595;28;20535;-71
2021/04/23 06:02:21;;;;;;;12.77;8.80;;;6.40;99.90;;;;;;5054084;28;20574;-71
2021/04/23 06:04:47;;;;;;;10.80;7.43;;;6.40;99.90;;;;;;5053904;28;20709;-71
2021/04/23 06:07:12;;;;;;;12.03;8.37;;;6.20;99.90;;;;;;5053463;28;20219;-71
2021/04/23 06:09:38;;;;;;;16.23;8.60;;;6.20;99.90;;;;;;5053529;28;20197;-71
2021/04/23 06:12:04;;;;;;;11.63;7.33;;;6.20;99.90;;;;;;5053832;28;20162;-71
2021/04/23 06:14:30;;;;;;;13.43;8.10;;;6.30;99.90;;;;;;5053944;28;20181;-72
2021/04/23 06:16:56;;;;;;;14.40;8.00;;;6.30;99.90;;;;;;5054614;28;20468;-71
2021/04/23 06:19:22;;;;;;;13.40;8.27;;;6.40;99.90;;;;;;5051661;28;20273;-72
2021/04/23 06:21:48;;;;;;;20.53;8.60;;;6.50;99.90;;;;;;5052765;28;20467;-72
2021/04/23 06:24:14;;;;;;;15.77;7.60;;;6.60;99.90;;;;;;5052412;28;20523;-70
2021/04/23 06:26:40;;;;;;;12.20;7.57;;;6.60;99.90;;;;;;5054784;28;20808;-71
2021/04/23 06:29:05;;;;;;;12.30;7.50;;;6.60;99.90;;;;;;5062131;28;20443;-70
2021/04/23 06:31:32;;;;;;;12.10;7.87;;;6.70;99.90;;;;;;5063023;28;20237;-71
2021/04/23 06:33:57;;;;;;;13.50;7.60;;;6.70;99.90;;;;;;5061654;28;20880;-71
2021/04/23 06:36:23;;;;;;;13.63;7.00;;;6.70;99.90;;;;;;5054058;28;20487;-73
2021/04/23 06:38:49;;;;;;;9.60;5.30;;;6.80;99.90;;;;;;5068388;28;20197;-71
2021/04/23 06:41:15;;;;;;;6.70;4.13;;;6.90;99.90;;;;;;5061555;28;20272;-72
2021/04/23 06:43:43;;;;;;;17.57;6.87;;;6.80;99.90;;;;;;5067676;28;20186;-72
2021/04/23 06:46:09;;;;;;;7.80;5.70;;;6.80;99.90;;;;;;5053645;28;20467;-71
2021/04/23 06:48:35;;;;;;;7.23;4.90;;;6.70;99.90;;;;;;5066599;28;20455;-71
2021/04/23 06:51:03;;;;;;;9.87;5.27;;;6.70;99.90;;;;;;5074490;28;20460;-71
2021/04/23 06:53:29;;;;;;;12.60;5.90;;;6.80;99.90;;;;;;5075038;28;20694;-71
2021/04/23 06:55:55;;;;;;;13.77;5.60;;;6.90;99.90;;;;;;5075039;28;20446;-71
2021/04/23 06:58:21;;;;;;;7.60;4.37;;;6.80;99.90;;;;;;5056154;28;20441;-71
2021/04/23 07:00:47;;;;;;;7.30;5.53;;;6.80;99.90;;;;;;5057094;28;20210;-71
2021/04/23 07:03:13;;;;;;;8.77;4.63;;;6.90;99.90;;;;;;5056076;28;20183;-71
2021/04/23 07:05:41;;;;;;;6.70;4.87;;;6.90;99.90;;;;;;5056177;28;20408;-72
2021/04/23 07:08:07;;;;;;;7.67;4.40;;;6.90;99.90;;;;;;5063311;28;20650;-72
2021/04/23 07:10:33;;;;;;;10.00;4.90;;;6.90;99.90;;;;;;5066834;28;20509;-71
2021/04/23 07:12:59;;;;;;;7.73;4.80;;;7.00;99.90;;;;;;5064163;28;20174;-71
2021/04/23 07:15:27;;;;;;;5.57;3.73;;;7.20;99.90;;;;;;5064800;28;20880;-71
2021/04/23 07:17:54;;;;;;;7.73;4.90;;;7.20;99.90;;;;;;5065390;28;20437;-70
2021/04/23 07:20:20;;;;;;;7.77;5.03;;;7.10;99.90;;;;;;5066503;28;20475;-71
2021/04/23 07:22:47;;;;;;;9.97;4.17;;;7.10;99.90;;;;;;5069750;28;20447;-72
2021/04/23 07:25:14;;;;;;;12.10;5.10;;;7.20;99.90;;;;;;5079831;28;20420;-71
2021/04/23 07:27:40;;;;;;;9.40;4.97;;;7.30;99.80;;;;;;5079961;28;20399;-71
2021/04/23 07:30:11;;;;;;;15.60;5.50;;;7.30;99.60;;;;;;5074558;28;20456;-71
2021/04/23 07:32:38;;;;;;;11.40;4.67;;;7.50;99.30;;;;;;5057321;28;20913;-71
2021/04/23 07:35:04;;;;;;;6.17;3.63;;;7.50;98.60;;;;;;5057172;28;20424;-71
2021/04/23 07:37:30;;;;;;;8.83;4.27;;;7.50;98.30;;;;;;5057813;28;20415;-71
2021/04/23 07:39:55;;;;;;;14.27;5.30;;;7.60;98.20;;;;;;5057666;28;20428;-72
2021/04/23 07:42:21;;;;;;;7.63;4.20;;;7.90;98.10;;;;;;5059242;28;20428;-71
2021/04/23 07:44:46;;;;;;;12.00;5.20;;;8.00;97.30;;;;;;5057031;28;20415;-71
2021/04/23 07:47:12;;;;;;;6.47;4.33;;;8.20;97.20;;;;;;5057847;28;20592;-71
2021/04/23 07:49:37;;;;;;;12.43;4.93;;;8.30;97.10;;;;;;5057764;28;20659;-71
2021/04/23 07:52:03;;;;;;;5.97;3.97;;;8.50;96.50;;;;;;5058037;28;20613;-71
2021/04/23 07:54:29;;;;;;;8.27;4.60;;;8.80;96.10;;;;;;5056747;28;20174;-71
2021/04/23 07:56:55;;;;;;;7.23;5.20;;;8.90;95.30;;;;;;5055398;28;20440;-71
2021/04/23 07:59:20;;;;;;;7.77;5.10;;;9.10;95.00;;;;;;5056633;28;20199;-72
2021/04/23 08:01:50;;;;;;;5.10;3.87;;;9.30;93.90;;;;;;5056439;28;20170;-72
2021/04/23 08:04:16;;;;;;;7.80;4.80;;;9.40;93.70;;;;;;5056639;28;20205;-71
2021/04/23 08:06:41;;;;;;;6.57;4.47;;;9.40;93.30;;;;;;5056865;28;20888;-71
2021/04/23 08:09:07;;;;;;;6.73;5.30;;;9.60;93.30;;;;;;5055935;28;20620;-71
2021/04/23 08:11:32;;;;;;;12.87;5.30;;;9.60;93.30;;;;;;5057233;28;20212;-71
2021/04/23 08:13:58;;;;;;;10.87;4.37;;;9.70;93.20;;;;;;5056927;28;20249;-71
2021/04/23 08:16:23;;;;;;;5.57;4.33;;;9.60;93.10;;;;;;5054821;28;20583;-71
2021/04/23 08:18:53;;;;;;;9.03;5.03;;;9.60;93.20;;;;;;5054948;28;20209;-71
2021/04/23 08:21:20;;;;;;;7.03;4.67;;;9.60;93.20;;;;;;5056263;28;20180;-71
2021/04/23 08:23:47;;;;;;;6.50;4.70;;;9.50;92.70;;;;;;5056946;28;20451;-70
2021/04/23 08:26:14;;;;;;;5.70;4.23;;;9.50;92.60;;;;;;5056327;28;20576;-71
2021/04/23 08:28:39;;;;;;;5.27;4.00;;;9.70;92.20;;;;;;5055489;28;20428;-71
2021/04/23 08:31:05;;;;;;;6.20;4.20;;;9.80;91.30;;;;;;5055280;28;20460;-71
2021/04/23 08:33:31;;;;;;;5.37;4.10;;;9.90;91.10;;;;;;5055941;28;20427;-72
2021/04/23 08:35:57;;;;;;;6.23;4.57;;;9.80;90.30;;;;;;5056833;28;20428;-73
2021/04/23 08:38:24;;;;;;;6.43;4.10;;;9.80;90.60;;;;;;5056007;28;20263;-72
2021/04/23 08:40:53;;;;;;;6.53;4.57;;;9.60;90.70;;;;;;5055610;28;20166;-72
2021/04/23 08:43:19;;;;;;;9.63;4.53;;;9.50;91.00;;;;;;5056747;28;20433;-72
2021/04/23 08:45:45;;;;;;;7.17;4.90;;;9.60;91.30;;;;;;5057493;28;20506;-72
2021/04/23 08:48:11;;;;;;;4.87;4.07;;;9.80;91.20;;;;;;5066169;28;20520;-71
2021/04/23 08:50:37;;;;;;;8.07;5.20;;;9.80;90.70;;;;;;5077401;28;20204;-71
2021/04/23 08:53:04;;;;;;;7.03;5.03;;;9.80;90.30;;;;;;5077670;28;20415;-71
2021/04/23 08:55:30;;;;;;;10.90;6.03;;;9.70;90.20;;;;;;5076585;28;20430;-71
2021/04/23 08:57:55;;;;;;;5.80;4.90;;;9.50;90.40;;;;;;5077379;28;20435;-71
2021/04/23 09:00:21;;;;;;;6.67;4.87;;;9.60;90.50;;;;;;5075436;28;20197;-71
2021/04/23 09:02:47;;;;;;;8.17;4.97;;;9.70;90.30;;;;;;5074844;28;20177;-72
2021/04/23 09:05:14;;;;;;;9.60;4.50;;;9.80;90.10;;;;;;5075546;28;20772;-71
2021/04/23 09:07:40;;;;;;;6.60;4.90;;;9.80;88.90;;;;;;5072636;28;20427;-72
2021/04/23 09:10:11;;;;;;;9.53;5.57;;;9.80;89.70;;;;;;5073782;28;21062;-71
2021/04/23 09:12:38;;;;;;;14.60;8.10;;;10.00;89.00;;;;;;5074719;28;20407;-72
2021/04/23 09:15:21;;;;;;;7.67;5.73;;;9.90;91.00;;;;;;5074644;28;20412;-72
2021/04/23 09:18:13;;;;;;;11.50;5.67;;;9.70;91.00;;;;;;5072843;28;20488;-72
2021/04/23 09:20:46;;;;;;;10.50;6.10;;;9.60;91.20;;;;;;5074846;28;20458;-72
2021/04/23 09:23:15;;;;;;;6.50;5.00;;;9.70;90.90;;;;;;5074505;28;20404;-72
2021/04/23 09:25:52;;;;;;;7.83;6.30;;;9.60;90.90;;;;;;5073402;28;20426;-72
2021/04/23 09:28:38;;;;;;;9.00;4.77;;;9.70;90.80;;;;;;5072246;28;20417;-72
2021/04/23 09:31:39;;;;;;;8.70;5.60;;;9.80;90.80;;;;;;5074689;28;20490;-72
2021/04/23 09:34:07;;;;;;;7.10;4.73;;;10.10;90.40;;;;;;5020425;28;20485;-71
2021/04/23 09:36:44;;;;;;;8.17;5.83;;;10.40;90.00;;;;;;5012280;28;20838;-71
2021/04/23 09:39:13;;;;;;;14.77;6.17;;;10.50;89.10;;;;;;4995611;28;21001;-71
2021/04/23 09:42:05;;;;;;;11.13;6.67;;;10.50;89.50;;;;;;5012643;28;20496;-72
2021/04/23 09:44:40;;;;;;;9.23;6.07;;;10.80;89.10;;;;;;5015544;28;20848;-71
2021/04/23 09:47:19;;;;;;;9.67;5.60;;;11.10;88.60;;;;;;5011930;28;20778;-72
2021/04/23 09:49:51;;;;;;;6.50;4.97;;;11.30;88.20;;;;;;5012433;28;20437;-73
2021/04/23 09:52:17;;;;;;;7.37;5.60;;;11.60;87.20;;;;;;5012857;28;20403;-72
2021/04/23 09:54:54;;;;;;;8.40;5.17;;;11.60;86.10;;;;;;5019390;28;20421;-72
2021/04/23 09:57:22;;;;;;;6.43;5.40;;;11.70;85.30;;;;;;5032154;28;20774;-72
2021/04/23 10:00:00;;;;;;;8.70;5.43;;;11.70;83.90;;;;;;5032159;28;20578;-72
2021/04/23 10:02:27;;;;;;;11.10;6.00;;;11.60;83.80;;;;;;5031729;28;20421;-72
2021/04/23 10:04:55;;;;;;;8.10;5.40;;;11.60;83.50;;;;;;5029907;28;20234;-72
2021/04/23 10:07:28;;;;;;;10.13;5.23;;;11.60;83.70;;;;;;5040632;28;20455;-72
2021/04/23 10:10:10;;;;;;;10.10;6.03;;;11.50;83.70;;;;;;5073676;28;20512;-72
2021/04/23 10:12:37;;;;;;;10.63;5.70;;;11.60;83.80;;;;;;5073714;28;20452;-72
2021/04/23 10:15:10;;;;;;;8.37;5.20;;;11.50;83.80;;;;;;5073727;28;20411;-72
2021/04/23 10:17:36;;;;;;;6.70;4.90;;;11.60;83.80;;;;;;5071568;28;20427;-71
2021/04/23 10:20:04;;;;;;;7.73;5.43;;;11.60;83.20;;;;;;5073764;28;20904;-72
2021/04/23 10:22:30;;;;;;;9.30;5.30;;;11.60;83.30;;;;;;5074445;28;20406;-72
2021/04/23 10:24:56;;;;;;;8.50;5.13;;;11.50;82.70;;;;;;5073365;28;20506;-73
2021/04/23 10:27:22;;;;;;;6.83;5.80;;;11.70;82.70;;;;;;5071599;28;20477;-72
2021/04/23 10:29:51;;;;;;;7.67;5.53;;;11.70;81.60;;;;;;5073269;28;20975;-71
2021/04/23 10:32:18;;;;;;;9.97;5.73;;;11.70;81.80;;;;;;5073589;28;20934;-72
2021/04/23 10:34:44;;;;;;;8.33;5.43;;;11.40;82.00;;;;;;5073911;28;20469;-72
2021/04/23 10:37:11;;;;;;;10.60;7.10;;;11.30;82.90;;;;;;5071651;28;20415;-72
2021/04/23 10:39:46;;;;;;;7.57;5.73;;;11.30;83.20;;;;;;5073660;28;20565;-72
2021/04/23 10:42:40;;;;;;;11.27;6.87;;;11.10;84.00;;;;;;5053570;28;20487;-72
2021/04/23 10:45:17;;;;;;;9.00;6.00;;;11.10;85.10;;;;;;5053487;28;20917;-72
2021/04/23 10:51:11;;;;;;;8.60;5.83;;;11.50;85.10;;;;;;5048790;28;20992;-72
2021/04/23 10:53:45;;;;;;;9.23;5.23;;;11.70;83.20;;;;;;5056968;28;20414;-72
2021/04/23 10:56:27;;;;;;;6.73;5.20;;;11.70;81.90;;;;;;5056142;28;20418;-72
2021/04/23 10:58:54;;;;;;;9.90;5.07;;;11.70;79.90;;;;;;5057096;28;20466;-71
2021/04/23 11:01:25;;;;;;;10.17;8.17;;;11.80;80.50;;;;;;5056763;28;20431;-71
2021/04/23 11:04:20;;;;;;;8.70;6.17;;;11.90;78.90;;;;;;5057728;28;20749;-72
2021/04/23 11:07:03;;;;;;;9.53;5.30;;;11.70;78.80;;;;;;5057445;28;20428;-72
2021/04/23 11:09:29;;;;;;;6.80;5.47;;;11.80;77.70;;;;;;5058938;28;20444;-72
2021/04/23 11:12:16;;;;;;;6.00;5.07;;;11.90;76.40;;;;;;5057216;28;20491;-72
2021/04/23 11:14:43;;;;;;;7.23;5.00;;;11.80;76.40;;;;;;5055937;28;20178;-72
2021/04/23 11:17:18;;;;;;;9.30;5.47;;;12.00;76.70;;;;;;5056914;28;20448;-72
2021/04/23 11:19:49;;;;;;;6.90;5.30;;;12.10;76.90;;;;;;5062442;28;20724;-72
2021/04/23 11:22:17;;;;;;;6.63;5.93;;;12.30;77.00;;;;;;5077445;28;20407;-72
2021/04/23 11:25:16;;;;;;;7.13;5.97;;;12.30;77.00;;;;;;5075681;28;20424;-70
2021/04/23 11:28:00;;;;;;;13.20;4.83;;;12.30;77.00;;;;;;5077316;28;20480;-70
2021/04/23 11:30:27;;;;;;;6.57;5.50;;;12.30;75.60;;;;;;5074764;28;20464;-71
2021/04/23 11:32:55;;;;;;;6.93;5.40;;;12.00;74.00;;;;;;5076257;28;20451;-71
2021/04/23 11:35:25;;;;;;;7.00;4.83;;;11.90;74.20;;;;;;5076697;28;20416;-71
2021/04/23 11:37:56;;;;;;;5.70;5.03;;;11.90;75.10;;;;;;5076556;28;20441;-73
2021/04/23 11:40:25;;;;;;;8.60;5.67;;;12.00;75.90;;;;;;5075449;28;20514;-71
2021/04/23 11:42:55;;;;;;;4.80;4.40;;;12.00;77.00;;;;;;5076654;28;20416;-70
2021/04/23 11:45:28;;;;;;;7.57;5.97;;;12.00;76.50;;;;;;5076864;28;20437;-71
2021/04/23 11:48:07;;;;;;;9.07;5.13;;;12.00;75.60;;;;;;5076758;28;20466;-71
2021/04/23 11:50:35;;;;;;;7.00;5.65;;;11.90;76.00;;;;;;5036494;28;20436;-71
2021/04/23 11:53:06;;;;;;;7.67;5.53;;;12.00;76.90;;;;;;5055269;28;20186;-71
2021/04/23 11:55:38;;;;;;;8.87;5.67;;;12.10;76.80;;;;;;5056762;28;20458;-72
2021/04/23 11:58:14;;;;;;;9.03;5.80;;;12.30;76.70;;;;;;5056975;28;20405;-72
2021/04/23 12:00:46;;;;;;;5.90;5.40;;;12.30;76.30;;;;;;5056224;28;20435;-72
2021/04/23 12:03:13;;;;;;;6.57;5.90;;;12.40;75.90;;;;;;5070648;28;20427;-72
2021/04/23 12:05:47;;;;;;;10.00;6.23;;;12.30;76.10;;;;;;5062989;28;20464;-71
2021/04/23 12:08:21;;;;;;;8.80;5.93;;;12.20;75.80;;;;;;5057244;28;20487;-71
2021/04/23 12:10:51;;;;;;;9.17;6.33;;;12.10;76.10;;;;;;5056171;28;20470;-71
2021/04/23 12:13:18;;;;;;;7.17;5.37;;;12.20;76.70;;;;;;5063003;28;20423;-72
2021/04/23 12:15:46;;;;;;;10.73;5.57;;;12.20;77.00;;;;;;5076683;28;20427;-71
2021/04/23 12:18:12;;;;;;;5.73;5.10;;;12.30;77.20;;;;;;5077063;28;20450;-71
2021/04/23 12:20:50;;;;;;;6.00;4.97;;;12.40;74.60;;;;;;5076844;28;20856;-71
2021/04/23 12:23:24;;;;;;;7.00;5.00;;;12.50;75.30;;;;;;5047505;28;20474;-71
2021/04/23 12:25:58;;;;;;;8.67;5.20;;;12.50;74.20;;;;;;5063569;28;20439;-71
2021/04/23 12:28:51;;;;;;;7.40;6.10;;;12.40;74.40;;;;;;5058992;28;20428;-72
2021/04/23 12:31:31;;;;;;;7.97;5.17;;;12.40;74.80;;;;;;5055048;28;20471;-70
2021/04/23 12:34:06;;;;;;;9.57;5.97;;;12.30;73.70;;;;;;5057511;28;20440;-72
2021/04/23 12:36:34;;;;;;;8.17;5.30;;;12.40;73.10;;;;;;5054945;28;20417;-71
2021/04/23 12:39:15;;;;;;;8.40;6.03;;;12.30;73.50;;;;;;5055553;28;20491;-71
2021/04/23 12:41:54;;;;;;;8.50;5.67;;;12.30;73.80;;;;;;5054520;28;20451;-71
2021/04/23 12:44:32;;;;;;;9.73;5.77;;;12.30;74.70;;;;;;5057531;28;20460;-71
2021/04/23 12:47:10;;;;;;;9.40;5.97;;;12.40;75.10;;;;;;5075671;28;20403;-71
2021/04/23 12:49:41;;;;;;;8.20;6.07;;;12.40;74.40;;;;;;5061269;28;20428;-72
2021/04/23 12:52:16;;;;;;;10.23;6.23;;;12.50;73.70;;;;;;5054230;28;20471;-72
2021/04/23 12:54:48;;;;;;;10.07;6.47;;;12.50;73.90;;;;;;5055512;28;20495;-72
2021/04/23 12:57:21;;;;;;;11.53;6.70;;;12.50;74.10;;;;;;5072895;28;20420;-72
2021/04/23 12:59:46;;;;;;;8.90;6.30;;;12.50;74.40;;;;;;5075215;28;20431;-72
2021/04/23 13:02:22;;;;;;;7.10;6.40;;;12.60;74.70;;;;;;5074908;28;20431;-72